HVN252 VVTS-VVNB
Flight info
| Callsign | HVN252 |
|---|---|
| Flight time | N/A |
| Altitude | 35000 |
| Route | PATMA5P/25L PATMA Q2 BIVIM BISON3J |
| Aircraft | A321/M-SDE3FGHIRWY/LB1 |
Departure
| Time | N/A |
|---|---|
| Airport | Tan Son Nhat International Airport (VVTS) |
Arrival
| Time | 2026-05-07 15:00 |
|---|---|
| Airport | Noi Bai International Airport (VVNB) |
| Time | Latitude | Longitude | Altitude | Speed | Heading |
|---|---|---|---|---|---|
| 2026-05-07 13:57 | 14.80345 | 107.84364 | 34980 ft | 459 kts | 359° |
| 2026-05-07 13:57 | 14.83540 | 107.84365 | 34984 ft | 459 kts | 359° |
| 2026-05-07 13:58 | 14.89924 | 107.84381 | 34989 ft | 459 kts | 360° |
| 2026-05-07 13:58 | 14.96310 | 107.84588 | 34992 ft | 459 kts | 1° |
| 2026-05-07 13:59 | 15.02693 | 107.84900 | 34998 ft | 459 kts | 1° |
| 2026-05-07 13:59 | 15.09029 | 107.85184 | 35000 ft | 459 kts | 1° |
| 2026-05-07 14:00 | 15.15365 | 107.85419 | 34997 ft | 459 kts | 1° |
| 2026-05-07 14:00 | 15.21753 | 107.85645 | 34997 ft | 459 kts | 1° |
| 2026-05-07 14:01 | 15.28130 | 107.85887 | 34989 ft | 459 kts | 1° |
| 2026-05-07 14:01 | 15.34514 | 107.86138 | 34985 ft | 459 kts | 1° |
| 2026-05-07 14:02 | 15.40893 | 107.86376 | 34977 ft | 458 kts | 1° |
| 2026-05-07 14:02 | 15.47265 | 107.86616 | 34969 ft | 458 kts | 1° |
| 2026-05-07 14:03 | 15.53592 | 107.86857 | 34966 ft | 458 kts | 1° |
| 2026-05-07 14:03 | 15.59963 | 107.87105 | 34963 ft | 458 kts | 1° |
| 2026-05-07 14:04 | 15.66337 | 107.87351 | 34962 ft | 458 kts | 1° |
| 2026-05-07 14:04 | 15.70022 | 107.87489 | 34953 ft | 456 kts | 1° |
| 2026-05-07 14:05 | 15.71010 | 107.87526 | 34957 ft | 456 kts | 1° |
| 2026-05-07 14:05 | 15.77354 | 107.87765 | 34952 ft | 456 kts | 1° |
| 2026-05-07 14:06 | 15.83620 | 107.88011 | 34949 ft | 457 kts | 1° |
| 2026-05-07 14:06 | 15.89929 | 107.88253 | 34943 ft | 457 kts | 1° |
| 2026-05-07 14:07 | 15.96232 | 107.87976 | 34943 ft | 455 kts | 347° |
| 2026-05-07 14:07 | 16.02160 | 107.85733 | 34937 ft | 453 kts | 333° |
| 2026-05-07 14:08 | 16.07848 | 107.82915 | 34933 ft | 453 kts | 334° |
| 2026-05-07 14:08 | 16.13561 | 107.80113 | 34926 ft | 453 kts | 334° |
| 2026-05-07 14:09 | 16.19261 | 107.77321 | 34921 ft | 453 kts | 334° |
| 2026-05-07 14:09 | 16.24972 | 107.74519 | 34915 ft | 453 kts | 334° |
| 2026-05-07 14:10 | 16.30671 | 107.71709 | 34916 ft | 453 kts | 334° |
| 2026-05-07 14:10 | 16.36365 | 107.68898 | 34916 ft | 453 kts | 334° |
| 2026-05-07 14:11 | 16.42018 | 107.66109 | 34917 ft | 452 kts | 334° |
| 2026-05-07 14:11 | 16.47706 | 107.63301 | 34917 ft | 452 kts | 334° |
| 2026-05-07 14:12 | 16.53392 | 107.60498 | 34914 ft | 452 kts | 334° |
| 2026-05-07 14:12 | 16.59078 | 107.57706 | 34904 ft | 452 kts | 334° |
| 2026-05-07 14:13 | 16.64761 | 107.54918 | 34897 ft | 451 kts | 334° |
| 2026-05-07 14:13 | 16.70443 | 107.52133 | 34894 ft | 451 kts | 334° |
| 2026-05-07 14:14 | 16.76092 | 107.49354 | 34897 ft | 452 kts | 334° |
| 2026-05-07 14:14 | 16.81776 | 107.46543 | 34898 ft | 452 kts | 334° |
| 2026-05-07 14:15 | 16.87471 | 107.43734 | 34897 ft | 452 kts | 334° |
| 2026-05-07 14:15 | 16.93160 | 107.40932 | 34898 ft | 452 kts | 334° |
| 2026-05-07 14:16 | 16.98852 | 107.38140 | 34901 ft | 452 kts | 334° |
| 2026-05-07 14:16 | 17.04538 | 107.35327 | 34902 ft | 452 kts | 334° |
| 2026-05-07 14:17 | 17.10169 | 107.32487 | 34906 ft | 452 kts | 333° |
| 2026-05-07 14:17 | 17.15830 | 107.29621 | 34908 ft | 452 kts | 333° |
| 2026-05-07 14:18 | 17.21495 | 107.26767 | 34908 ft | 452 kts | 333° |
| 2026-05-07 14:18 | 17.27161 | 107.23920 | 34912 ft | 452 kts | 333° |
| 2026-05-07 14:19 | 17.32819 | 107.21069 | 34910 ft | 452 kts | 333° |
| 2026-05-07 14:19 | 17.38482 | 107.18210 | 34913 ft | 452 kts | 333° |
| 2026-05-07 14:20 | 17.44107 | 107.15367 | 34913 ft | 452 kts | 333° |
| 2026-05-07 14:20 | 17.49777 | 107.12501 | 34916 ft | 453 kts | 333° |
| 2026-05-07 14:21 | 17.55446 | 107.09632 | 34920 ft | 453 kts | 333° |
| 2026-05-07 14:21 | 17.61116 | 107.06761 | 34920 ft | 453 kts | 333° |
| 2026-05-07 14:22 | 17.66793 | 107.03889 | 34920 ft | 453 kts | 333° |
| 2026-05-07 14:22 | 17.72456 | 107.01015 | 34924 ft | 452 kts | 333° |
| 2026-05-07 14:23 | 17.78122 | 106.98134 | 34927 ft | 452 kts | 333° |
| 2026-05-07 14:23 | 17.83782 | 106.95260 | 34925 ft | 451 kts | 333° |
| 2026-05-07 14:24 | 17.89432 | 106.92398 | 34931 ft | 451 kts | 333° |
| 2026-05-07 14:24 | 17.95040 | 106.89562 | 34932 ft | 450 kts | 333° |
| 2026-05-07 14:25 | 18.00678 | 106.86724 | 34931 ft | 449 kts | 333° |
| 2026-05-07 14:25 | 18.06312 | 106.83890 | 34933 ft | 448 kts | 333° |
| 2026-05-07 14:26 | 18.11930 | 106.81058 | 34933 ft | 448 kts | 333° |
| 2026-05-07 14:26 | 18.17539 | 106.78222 | 34933 ft | 447 kts | 333° |
| 2026-05-07 14:27 | 18.23144 | 106.75388 | 34932 ft | 447 kts | 333° |
| 2026-05-07 14:27 | 18.28743 | 106.72557 | 34932 ft | 446 kts | 333° |
| 2026-05-07 14:28 | 18.34334 | 106.69728 | 34932 ft | 446 kts | 333° |
| 2026-05-07 14:28 | 18.39921 | 106.66898 | 34937 ft | 446 kts | 333° |
| 2026-05-07 14:29 | 18.45507 | 106.64067 | 34933 ft | 445 kts | 333° |
| 2026-05-07 14:29 | 18.51088 | 106.61228 | 34934 ft | 445 kts | 333° |
| 2026-05-07 14:30 | 18.56671 | 106.58397 | 34936 ft | 445 kts | 333° |
| 2026-05-07 14:30 | 18.62258 | 106.55571 | 34937 ft | 445 kts | 333° |
| 2026-05-07 14:31 | 18.67849 | 106.52759 | 34932 ft | 445 kts | 333° |
| 2026-05-07 14:31 | 18.73435 | 106.49944 | 34936 ft | 445 kts | 333° |
| 2026-05-07 14:32 | 18.79017 | 106.47120 | 34934 ft | 445 kts | 333° |
| 2026-05-07 14:32 | 18.84596 | 106.44296 | 34938 ft | 444 kts | 333° |
| 2026-05-07 14:33 | 18.90129 | 106.41494 | 34935 ft | 444 kts | 333° |
| 2026-05-07 14:33 | 18.95707 | 106.38682 | 34933 ft | 444 kts | 333° |
| 2026-05-07 14:34 | 19.01287 | 106.35879 | 34933 ft | 444 kts | 333° |
| 2026-05-07 14:34 | 19.06869 | 106.33068 | 34937 ft | 444 kts | 333° |
| 2026-05-07 14:35 | 19.12444 | 106.30253 | 34939 ft | 444 kts | 333° |
| 2026-05-07 14:35 | 19.17086 | 106.27911 | 34939 ft | 444 kts | 333° |
| 2026-05-07 14:36 | 19.23607 | 106.24616 | 34948 ft | 444 kts | 333° |
| 2026-05-07 14:36 | 19.29149 | 106.21819 | 34947 ft | 444 kts | 333° |
| 2026-05-07 14:37 | 19.34724 | 106.18997 | 34943 ft | 444 kts | 332° |
| 2026-05-07 14:37 | 19.43080 | 106.14769 | 34945 ft | 444 kts | 332° |
| 2026-05-07 14:38 | 19.47704 | 106.12428 | 34945 ft | 443 kts | 332° |
| 2026-05-07 14:38 | 19.53275 | 106.09608 | 34941 ft | 443 kts | 332° |
| 2026-05-07 14:39 | 19.59118 | 106.07491 | 34939 ft | 445 kts | 341° |
| 2026-05-07 14:39 | 19.65077 | 106.05681 | 34924 ft | 446 kts | 341° |
| 2026-05-07 14:40 | 19.71031 | 106.03877 | 34376 ft | 444 kts | 341° |
| 2026-05-07 14:40 | 19.73965 | 106.02987 | 33843 ft | 442 kts | 341° |
| 2026-05-07 14:40 | 19.76908 | 106.02094 | 33321 ft | 439 kts | 341° |
| 2026-05-07 14:41 | 19.79836 | 106.01204 | 32815 ft | 436 kts | 341° |
| 2026-05-07 14:41 | 19.82739 | 106.00319 | 32317 ft | 433 kts | 341° |
| 2026-05-07 14:41 | 19.85621 | 105.99438 | 31815 ft | 429 kts | 341° |
| 2026-05-07 14:41 | 19.88482 | 105.98566 | 31320 ft | 426 kts | 341° |
| 2026-05-07 14:42 | 19.91326 | 105.97699 | 30831 ft | 423 kts | 341° |
| 2026-05-07 14:42 | 19.94141 | 105.96842 | 30351 ft | 420 kts | 341° |
| 2026-05-07 14:42 | 19.96943 | 105.95990 | 29872 ft | 417 kts | 341° |
| 2026-05-07 14:42 | 19.99724 | 105.95145 | 29317 ft | 414 kts | 341° |
| 2026-05-07 14:43 | 20.02482 | 105.94303 | 28777 ft | 411 kts | 341° |
| 2026-05-07 14:43 | 20.05222 | 105.93463 | 28247 ft | 408 kts | 341° |
| 2026-05-07 14:43 | 20.07942 | 105.92629 | 27732 ft | 405 kts | 342° |
| 2026-05-07 14:43 | 20.10609 | 105.91814 | 27232 ft | 403 kts | 342° |
| 2026-05-07 14:44 | 20.13297 | 105.90993 | 26730 ft | 400 kts | 342° |
| 2026-05-07 14:44 | 20.15967 | 105.90177 | 26240 ft | 398 kts | 342° |
| 2026-05-07 14:44 | 20.18621 | 105.89365 | 25764 ft | 396 kts | 342° |
| 2026-05-07 14:44 | 20.21262 | 105.88558 | 25321 ft | 394 kts | 342° |
| 2026-05-07 14:45 | 20.23891 | 105.87756 | 24914 ft | 392 kts | 342° |
| 2026-05-07 14:45 | 20.26503 | 105.86957 | 24464 ft | 390 kts | 343° |
| 2026-05-07 14:45 | 20.29105 | 105.86162 | 24009 ft | 388 kts | 343° |
| 2026-05-07 14:45 | 20.31690 | 105.85371 | 23561 ft | 386 kts | 343° |
| 2026-05-07 14:46 | 20.34268 | 105.84581 | 23053 ft | 384 kts | 343° |
| 2026-05-07 14:46 | 20.36825 | 105.83799 | 22562 ft | 381 kts | 343° |
| 2026-05-07 14:46 | 20.39380 | 105.83017 | 21744 ft | 387 kts | 343° |
| 2026-05-07 14:46 | 20.42007 | 105.82210 | 20677 ft | 400 kts | 343° |
| 2026-05-07 14:47 | 20.44725 | 105.81373 | 19600 ft | 412 kts | 343° |
| 2026-05-07 14:47 | 20.47515 | 105.80514 | 18617 ft | 421 kts | 343° |
| 2026-05-07 14:47 | 20.50291 | 105.79660 | 17878 ft | 420 kts | 343° |
| 2026-05-07 14:47 | 20.53090 | 105.78800 | 17177 ft | 417 kts | 343° |
| 2026-05-07 14:48 | 20.55866 | 105.77949 | 16523 ft | 413 kts | 343° |
| 2026-05-07 14:48 | 20.58613 | 105.77106 | 15902 ft | 409 kts | 343° |
| 2026-05-07 14:48 | 20.61330 | 105.76272 | 15284 ft | 404 kts | 343° |
| 2026-05-07 14:48 | 20.64024 | 105.75444 | 14679 ft | 400 kts | 343° |
| 2026-05-07 14:49 | 20.66687 | 105.74625 | 14083 ft | 397 kts | 343° |
| 2026-05-07 14:49 | 20.69323 | 105.73813 | 13472 ft | 393 kts | 343° |
| 2026-05-07 14:49 | 20.71936 | 105.73006 | 12799 ft | 389 kts | 343° |
| 2026-05-07 14:49 | 20.74524 | 105.72207 | 12130 ft | 385 kts | 343° |
| 2026-05-07 14:50 | 20.77050 | 105.71428 | 11491 ft | 381 kts | 343° |
| 2026-05-07 14:50 | 20.79590 | 105.70646 | 10851 ft | 378 kts | 344° |
| 2026-05-07 14:50 | 20.82106 | 105.69874 | 10245 ft | 374 kts | 344° |
| 2026-05-07 14:50 | 20.84549 | 105.69123 | 9990 ft | 360 kts | 344° |
| 2026-05-07 14:51 | 20.86900 | 105.68399 | 9851 ft | 343 kts | 344° |
| 2026-05-07 14:51 | 20.89144 | 105.67708 | 9730 ft | 327 kts | 344° |
| 2026-05-07 14:51 | 20.91285 | 105.67049 | 9603 ft | 313 kts | 344° |
| 2026-05-07 14:51 | 20.93150 | 105.66474 | 9482 ft | 301 kts | 344° |
| 2026-05-07 14:52 | 20.95130 | 105.65863 | 9270 ft | 292 kts | 344° |
| 2026-05-07 14:52 | 20.97074 | 105.65262 | 8928 ft | 289 kts | 344° |
| 2026-05-07 14:52 | 20.98944 | 105.64681 | 8801 ft | 278 kts | 345° |
| 2026-05-07 14:52 | 21.00778 | 105.64112 | 8536 ft | 274 kts | 345° |
| 2026-05-07 14:53 | 21.02633 | 105.63536 | 8143 ft | 274 kts | 345° |
| 2026-05-07 14:53 | 21.04442 | 105.62967 | 7765 ft | 275 kts | 345° |
| 2026-05-07 14:53 | 21.06276 | 105.62386 | 7383 ft | 275 kts | 345° |
| 2026-05-07 14:53 | 21.08112 | 105.61803 | 7007 ft | 276 kts | 345° |
| 2026-05-07 14:54 | 21.09953 | 105.61220 | 6634 ft | 275 kts | 345° |
| 2026-05-07 14:54 | 21.11847 | 105.60622 | 5835 ft | 292 kts | 345° |
| 2026-05-07 14:54 | 21.13823 | 105.60000 | 5239 ft | 298 kts | 345° |
| 2026-05-07 14:54 | 21.15816 | 105.59371 | 4813 ft | 298 kts | 345° |
| 2026-05-07 14:55 | 21.17840 | 105.59035 | 4398 ft | 294 kts | 6° |
| 2026-05-07 14:55 | 21.19796 | 105.59569 | 3976 ft | 291 kts | 21° |
| 2026-05-07 14:55 | 21.21669 | 105.60313 | 3767 ft | 282 kts | 22° |
| 2026-05-07 14:55 | 21.23437 | 105.61098 | 3637 ft | 269 kts | 31° |
| 2026-05-07 14:56 | 21.24841 | 105.62318 | 3519 ft | 255 kts | 51° |
| 2026-05-07 14:56 | 21.25737 | 105.63891 | 3416 ft | 240 kts | 70° |
| 2026-05-07 14:56 | 21.26109 | 105.65563 | 3150 ft | 225 kts | 87° |
| 2026-05-07 14:56 | 21.25995 | 105.67191 | 2733 ft | 215 kts | 105° |
| 2026-05-07 14:57 | 21.25571 | 105.68693 | 2267 ft | 206 kts | 109° |
| 2026-05-07 14:57 | 21.25156 | 105.70137 | 1795 ft | 199 kts | 109° |
| 2026-05-07 14:57 | 21.24760 | 105.71515 | 1504 ft | 185 kts | 108° |
| 2026-05-07 14:57 | 21.24399 | 105.72767 | 1253 ft | 168 kts | 108° |
| 2026-05-07 14:58 | 21.24066 | 105.73922 | 1047 ft | 157 kts | 108° |
| 2026-05-07 14:58 | 21.23765 | 105.74962 | 874 ft | 153 kts | 108° |
| 2026-05-07 14:58 | 21.23452 | 105.76047 | 692 ft | 151 kts | 108° |
| 2026-05-07 14:58 | 21.23146 | 105.77106 | 488 ft | 150 kts | 107° |
| 2026-05-07 14:59 | 21.22840 | 105.78168 | 309 ft | 150 kts | 108° |
| 2026-05-07 14:59 | 21.22536 | 105.79229 | 113 ft | 148 kts | 109° |
| 2026-05-07 14:59 | 21.22240 | 105.80245 | 51 ft | 128 kts | 109° |
| 2026-05-07 14:59 | 21.22026 | 105.80984 | 51 ft | 79 kts | 107° |
| 2026-05-07 15:00 | 21.21890 | 105.81299 | 49 ft | 21 kts | 146° |
| 2026-05-07 15:00 | 21.21797 | 105.81398 | 50 ft | 18 kts | 137° |
| 2026-05-07 15:00 | 21.21701 | 105.81489 | 50 ft | 18 kts | 139° |
| 2026-05-07 15:00 | 21.21595 | 105.81560 | 51 ft | 17 kts | 167° |
| 2026-05-07 15:01 | 21.21482 | 105.81528 | 50 ft | 16 kts | 225° |
| 2026-05-07 15:01 | 21.21488 | 105.81427 | 50 ft | 15 kts | 289° |
| 2026-05-07 15:01 | 21.21522 | 105.81307 | 46 ft | 19 kts | 287° |
| 2026-05-07 15:01 | 21.21564 | 105.81163 | 46 ft | 21 kts | 287° |
| 2026-05-07 15:02 | 21.21609 | 105.81008 | 49 ft | 22 kts | 287° |
| 2026-05-07 15:02 | 21.21655 | 105.80849 | 48 ft | 23 kts | 287° |
| 2026-05-07 15:02 | 21.21686 | 105.80695 | 49 ft | 19 kts | 250° |
| 2026-05-07 15:02 | 21.21598 | 105.80647 | 49 ft | 14 kts | 200° |
| 2026-05-07 15:03 | 21.21503 | 105.80614 | 49 ft | 15 kts | 197° |
| 2026-05-07 15:03 | 21.21416 | 105.80563 | 46 ft | 15 kts | 239° |
| 2026-05-07 15:03 | 21.21424 | 105.80485 | 47 ft | 3 kts | 292° |
| 2026-05-07 15:03 | 21.21426 | 105.80480 | 49 ft | 0 kts | 292° |